createdAt,value
2022-11-29T00:01:12.854Z,76.40
2022-11-29T00:03:39.837Z,76.50
2022-11-29T00:06:08.440Z,76.50
2022-11-29T00:08:36.226Z,76.60
2022-11-29T00:11:07.893Z,76.50
2022-11-29T00:13:35.300Z,76.50
2022-11-29T00:16:04.113Z,76.60
2022-11-29T00:18:31.241Z,76.70
2022-11-29T00:20:58.410Z,76.80
2022-11-29T00:23:25.724Z,77.00
2022-11-29T00:25:53.080Z,77.00
2022-11-29T00:28:20.268Z,77.10
2022-11-29T00:30:47.811Z,76.90
2022-11-29T00:33:14.911Z,77.10
2022-11-29T00:35:42.022Z,77.00
2022-11-29T00:38:09.227Z,77.80
2022-11-29T00:40:36.202Z,77.20
2022-11-29T00:43:03.471Z,77.20
2022-11-29T00:45:30.842Z,77.30
2022-11-29T00:47:58.283Z,77.40
2022-11-29T00:50:25.436Z,77.30
2022-11-29T00:52:52.638Z,77.40
2022-11-29T00:55:19.792Z,77.40
2022-11-29T00:57:46.909Z,77.40
2022-11-29T01:00:14.575Z,77.40
2022-11-29T01:02:41.879Z,77.40
2022-11-29T01:05:09.497Z,77.50
2022-11-29T01:07:36.619Z,77.40
2022-11-29T01:10:04.032Z,77.40
2022-11-29T01:12:31.297Z,77.30
2022-11-29T01:14:58.939Z,77.10
2022-11-29T01:17:26.024Z,77.20
2022-11-29T01:19:53.278Z,77.40
2022-11-29T01:22:20.552Z,77.10
2022-11-29T01:24:47.631Z,76.90
2022-11-29T01:27:14.782Z,77.10
2022-11-29T01:29:42.785Z,77.10
2022-11-29T01:32:09.951Z,77.20
2022-11-29T01:34:37.739Z,76.90
2022-11-29T01:37:04.936Z,77.00
2022-11-29T01:39:32.076Z,76.80
2022-11-29T01:42:01.012Z,77.00
2022-11-29T01:44:29.296Z,77.20
2022-11-29T01:46:56.753Z,77.30
2022-11-29T01:49:36.740Z,77.10
2022-11-29T01:52:24.932Z,76.90
2022-11-29T01:54:55.992Z,76.80
2022-11-29T01:57:23.260Z,76.80
2022-11-29T01:59:52.488Z,76.90
2022-11-29T02:02:43.671Z,76.90
2022-11-29T02:05:11.664Z,77.60
2022-11-29T02:07:38.999Z,77.00
2022-11-29T02:10:06.828Z,76.90
2022-11-29T02:12:45.513Z,76.90
2022-11-29T02:15:39.320Z,76.90
2022-11-29T02:18:14.929Z,76.70
2022-11-29T02:21:17.655Z,76.80
2022-11-29T02:24:27.660Z,76.80
2022-11-29T02:27:06.893Z,76.80
2022-11-29T02:30:09.619Z,76.80
2022-11-29T02:32:49.013Z,76.70
2022-11-29T02:35:44.476Z,76.60
2022-11-29T02:38:29.567Z,76.20
2022-11-29T02:41:28.658Z,76.80
2022-11-29T02:44:54.459Z,76.70
2022-11-29T02:47:40.561Z,76.40
2022-11-29T02:50:38.996Z,76.60
2022-11-29T02:53:27.352Z,76.40
2022-11-29T02:56:00.199Z,76.50
2022-11-29T02:58:53.559Z,76.50
2022-11-29T03:01:37.030Z,76.30
2022-11-29T03:04:07.653Z,76.20
2022-11-29T03:06:43.046Z,76.10
2022-11-29T03:09:22.968Z,75.50
2022-11-29T03:12:03.362Z,76.20
2022-11-29T03:15:02.115Z,75.80
2022-11-29T03:17:46.747Z,75.80
2022-11-29T03:20:19.594Z,75.90
2022-11-29T03:23:05.121Z,75.60
2022-11-29T03:25:49.413Z,76.10
2022-11-29T03:28:22.157Z,76.30
2022-11-29T03:31:21.628Z,76.10
2022-11-29T03:34:15.082Z,76.30
2022-11-29T03:37:04.574Z,76.00
2022-11-29T03:39:43.936Z,76.60
2022-11-29T03:42:26.350Z,76.50
2022-11-29T03:45:01.030Z,76.20
2022-11-29T03:47:34.850Z,76.40
2022-11-29T03:50:16.793Z,77.20
2022-11-29T03:52:54.835Z,76.60
2022-11-29T03:55:21.982Z,76.00
2022-11-29T03:58:10.591Z,75.60
2022-11-29T04:00:50.182Z,75.20
2022-11-29T04:03:36.493Z,75.50
2022-11-29T04:06:17.557Z,75.90
2022-11-29T04:09:09.181Z,75.20
2022-11-29T04:12:32.045Z,75.50
2022-11-29T04:15:18.077Z,75.00
2022-11-29T04:17:56.749Z,75.20
2022-11-29T04:20:35.009Z,75.30
2022-11-29T04:23:34.049Z,75.40
2022-11-29T04:26:19.290Z,75.30
2022-11-29T04:29:04.573Z,75.70
2022-11-29T04:31:59.901Z,75.50
2022-11-29T04:34:45.658Z,75.80
2022-11-29T04:37:28.402Z,75.80
2022-11-29T04:40:01.667Z,76.00
2022-11-29T04:42:54.652Z,75.50
2022-11-29T04:45:21.810Z,75.70
2022-11-29T04:48:07.762Z,75.70
2022-11-29T04:50:43.341Z,76.10
2022-11-29T04:53:16.651Z,75.50
2022-11-29T04:56:02.787Z,75.90
2022-11-29T04:58:45.466Z,76.00
2022-11-29T05:01:46.772Z,76.60
2022-11-29T05:04:23.892Z,75.90
2022-11-29T05:07:30.947Z,75.90
2022-11-29T05:10:17.318Z,75.80
2022-11-29T05:12:44.445Z,76.30
2022-11-29T05:15:30.265Z,76.10
2022-11-29T05:18:21.765Z,76.20
2022-11-29T05:21:04.276Z,75.70
2022-11-29T05:24:02.656Z,75.50
2022-11-29T05:26:34.150Z,75.50
2022-11-29T05:29:21.946Z,75.50
2022-11-29T05:32:12.338Z,75.80
2022-11-29T05:34:51.924Z,75.70
2022-11-29T05:37:37.884Z,75.70
2022-11-29T05:40:23.146Z,75.50
2022-11-29T05:43:03.566Z,76.00
2022-11-29T05:46:13.105Z,76.10
2022-11-29T05:48:58.162Z,75.70
2022-11-29T05:51:45.081Z,75.50
2022-11-29T05:54:37.428Z,75.50
2022-11-29T05:57:33.175Z,75.10
2022-11-29T06:00:00.245Z,76.20
2022-11-29T06:02:27.560Z,75.30
2022-11-29T06:05:13.425Z,75.30
2022-11-29T06:08:04.718Z,75.50
2022-11-29T06:10:34.154Z,74.70
2022-11-29T06:13:36.235Z,74.70
2022-11-29T06:16:42.827Z,74.30
2022-11-29T06:19:33.738Z,73.20
2022-11-29T06:22:21.045Z,73.80
2022-11-29T06:25:03.624Z,73.30
2022-11-29T06:27:35.496Z,73.10
2022-11-29T06:30:09.348Z,72.80
2022-11-29T06:32:54.497Z,72.20
2022-11-29T06:35:33.005Z,72.20
2022-11-29T06:38:00.246Z,71.30
2022-11-29T06:40:27.499Z,72.30
2022-11-29T06:42:54.544Z,73.10
2022-11-29T06:45:22.408Z,73.30
2022-11-29T06:48:27.955Z,73.60
2022-11-29T06:50:58.723Z,73.60
2022-11-29T06:53:50.853Z,73.70
2022-11-29T06:56:21.050Z,73.60
2022-11-29T06:59:00.293Z,73.30
2022-11-29T07:01:47.628Z,73.30
2022-11-29T07:04:24.739Z,71.30
2022-11-29T07:07:04.083Z,73.20
2022-11-29T07:09:35.472Z,72.30
2022-11-29T07:12:02.872Z,73.00
2022-11-29T07:14:30.296Z,73.30
2022-11-29T07:17:35.800Z,73.90
2022-11-29T07:20:34.546Z,73.30
2022-11-29T07:23:14.372Z,71.70
2022-11-29T07:26:19.460Z,72.20
2022-11-29T07:29:02.219Z,72.60
2022-11-29T07:31:59.326Z,71.50
2022-11-29T07:34:37.437Z,71.30
2022-11-29T07:37:17.043Z,72.10
2022-11-29T07:40:12.746Z,71.60
2022-11-29T07:43:02.063Z,72.30
2022-11-29T07:45:32.180Z,71.90
2022-11-29T07:47:59.488Z,72.40
2022-11-29T07:50:27.011Z,71.70
2022-11-29T07:52:54.440Z,71.60
2022-11-29T07:55:22.870Z,71.20
2022-11-29T07:57:50.348Z,70.70
2022-11-29T08:00:18.510Z,71.10
2022-11-29T08:02:48.290Z,71.30
2022-11-29T08:05:39.761Z,70.40
2022-11-29T08:08:17.964Z,71.30
2022-11-29T08:10:46.036Z,71.50
2022-11-29T08:13:13.710Z,71.40
2022-11-29T08:15:45.549Z,70.70
2022-11-29T08:18:14.186Z,70.70
2022-11-29T08:20:42.865Z,69.20
2022-11-29T08:26:38.793Z,71.10
2022-11-29T08:29:07.575Z,71.40
2022-11-29T08:31:34.934Z,71.40
2022-11-29T08:34:13.555Z,71.10
2022-11-29T08:36:57.420Z,70.30
2022-11-29T08:39:59.158Z,71.20
2022-11-29T08:45:45.983Z,71.00
2022-11-29T08:51:48.418Z,70.50
2022-11-29T08:54:32.777Z,71.00
2022-11-29T09:00:43.570Z,69.00
2022-11-29T09:03:47.263Z,68.30
2022-11-29T09:06:36.934Z,68.00
2022-11-29T09:09:46.384Z,69.50
2022-11-29T09:45:59.251Z,69.50
2022-11-29T09:48:51.100Z,70.10
2022-11-29T09:51:59.027Z,70.60
2022-11-29T09:54:40.635Z,69.50
2022-11-29T09:57:10.880Z,68.20
2022-11-29T09:59:57.154Z,67.70
2022-11-29T10:02:56.829Z,68.10
2022-11-29T10:05:50.916Z,66.70
2022-11-29T10:09:03.046Z,65.80
2022-11-29T10:11:52.021Z,67.10
2022-11-29T10:14:30.203Z,68.20
2022-11-29T10:17:56.175Z,68.90
2022-11-29T10:21:04.556Z,68.20
2022-11-29T10:24:01.323Z,68.00
2022-11-29T10:26:50.850Z,66.70
2022-11-29T10:29:50.201Z,67.40
2022-11-29T10:32:39.162Z,66.00
2022-11-29T10:35:18.709Z,66.20
2022-11-29T10:38:07.564Z,66.10
2022-11-29T10:40:41.856Z,65.10
2022-11-29T10:43:09.792Z,64.50
2022-11-29T10:45:51.113Z,64.80
2022-11-29T10:48:19.970Z,63.50
2022-11-29T10:50:48.827Z,65.50
2022-11-29T10:53:22.966Z,66.10
2022-11-29T10:56:00.417Z,66.60
2022-11-29T10:58:31.928Z,65.40
2022-11-29T11:01:11.703Z,65.20
2022-11-29T11:03:53.070Z,64.90
2022-11-29T11:06:25.291Z,64.00
2022-11-29T11:09:15.972Z,63.80
2022-11-29T11:12:50.556Z,63.20
2022-11-29T11:15:29.783Z,62.00
2022-11-29T11:18:15.132Z,64.80
2022-11-29T11:20:53.276Z,62.00
2022-11-29T11:23:37.498Z,63.10
2022-11-29T11:26:10.352Z,63.00
2022-11-29T11:28:49.419Z,65.40
2022-11-29T11:31:25.561Z,63.40
2022-11-29T11:33:54.189Z,63.20
2022-11-29T11:36:28.541Z,61.80
2022-11-29T11:39:13.460Z,63.10
2022-11-29T11:42:03.849Z,63.30
2022-11-29T11:44:49.887Z,62.20
2022-11-29T11:47:21.898Z,63.00
2022-11-29T11:49:59.674Z,62.20
2022-11-29T11:52:32.178Z,61.90
2022-11-29T11:55:06.510Z,63.80
2022-11-29T11:57:37.017Z,60.80
2022-11-29T12:00:15.045Z,61.10
2022-11-29T12:03:33.846Z,57.70
2022-11-29T12:06:35.018Z,61.10
2022-11-29T12:09:25.315Z,62.00
2022-11-29T12:12:06.692Z,61.10
2022-11-29T12:15:03.651Z,58.90
2022-11-29T12:17:51.307Z,58.70
2022-11-29T12:20:43.086Z,58.70
2022-11-29T12:23:13.244Z,60.60
2022-11-29T12:26:41.156Z,62.20
2022-11-29T12:29:14.234Z,61.70
2022-11-29T12:31:57.477Z,58.70
2022-11-29T12:39:11.689Z,60.40
2022-11-29T12:42:00.302Z,62.40
2022-11-29T12:44:34.087Z,60.90
2022-11-29T12:47:35.098Z,60.40
2022-11-29T12:54:20.182Z,58.00
2022-11-29T12:57:02.666Z,61.70
2022-11-29T12:59:55.217Z,63.00
2022-11-29T13:02:38.716Z,59.10
2022-11-29T13:05:19.142Z,59.90
2022-11-29T13:08:08.051Z,60.20
2022-11-29T13:10:53.816Z,60.30
2022-11-29T13:13:43.904Z,63.20
2022-11-29T13:19:19.307Z,63.40
2022-11-29T13:22:05.009Z,65.10
2022-11-29T13:24:59.655Z,63.80
2022-11-29T13:27:38.939Z,63.40
2022-11-29T13:30:06.944Z,64.50
2022-11-29T13:32:51.769Z,63.50
2022-11-29T13:35:41.901Z,64.80
2022-11-29T13:38:09.472Z,62.90
2022-11-29T13:40:48.905Z,64.80
2022-11-29T13:43:38.764Z,65.50
2022-11-29T13:46:31.664Z,64.40
2022-11-29T13:49:00.007Z,63.70
2022-11-29T13:51:42.158Z,62.20
2022-11-29T13:54:30.021Z,61.70
2022-11-29T13:57:09.635Z,61.80
2022-11-29T13:59:45.783Z,62.50
2022-11-29T14:02:27.557Z,61.50
2022-11-29T14:04:55.257Z,62.00
2022-11-29T14:07:23.102Z,61.70
2022-11-29T14:10:00.789Z,61.60
2022-11-29T14:12:37.179Z,60.40
2022-11-29T14:15:44.917Z,61.60
2022-11-29T14:18:48.637Z,61.80
2022-11-29T14:21:15.913Z,62.20
2022-11-29T14:23:51.501Z,62.40
2022-11-29T14:26:28.328Z,61.00
2022-11-29T14:28:56.145Z,64.20
2022-11-29T14:31:51.223Z,62.90
2022-11-29T14:34:21.724Z,63.20
2022-11-29T14:36:50.404Z,63.60
2022-11-29T14:39:43.324Z,64.40
2022-11-29T14:42:21.591Z,65.70
2022-11-29T14:45:01.267Z,67.80
2022-11-29T14:47:32.800Z,68.80
2022-11-29T14:50:05.935Z,67.40
2022-11-29T14:52:49.875Z,67.90
2022-11-29T14:55:17.113Z,67.00
2022-11-29T14:57:50.712Z,66.60
2022-11-29T15:00:26.836Z,65.40
2022-11-29T15:03:00.912Z,62.80
2022-11-29T15:05:36.390Z,66.00
2022-11-29T15:08:15.793Z,67.00
2022-11-29T15:10:47.697Z,66.00
2022-11-29T15:13:18.138Z,66.00
2022-11-29T15:15:45.259Z,66.90
2022-11-29T15:18:41.695Z,67.30
2022-11-29T15:21:17.717Z,67.60
2022-11-29T15:23:45.322Z,66.40
2022-11-29T15:26:21.798Z,66.50
2022-11-29T15:28:49.250Z,66.60
2022-11-29T15:31:21.636Z,66.40
2022-11-29T15:33:49.519Z,65.10
2022-11-29T15:36:21.710Z,64.60
2022-11-29T15:38:50.676Z,63.70
2022-11-29T15:41:27.605Z,64.50
2022-11-29T15:43:58.140Z,65.00
2022-11-29T15:46:25.667Z,64.50
2022-11-29T15:48:53.013Z,64.60
2022-11-29T15:51:28.487Z,64.90
2022-11-29T15:54:14.403Z,65.60
2022-11-29T15:56:49.829Z,65.80
2022-11-29T15:59:28.243Z,65.60
2022-11-29T16:01:56.010Z,66.60
2022-11-29T16:04:24.504Z,66.40
2022-11-29T16:06:52.257Z,66.50
2022-11-29T16:09:22.832Z,66.30
2022-11-29T16:11:49.834Z,68.00
2022-11-29T16:14:25.325Z,68.10
2022-11-29T16:16:53.169Z,67.80
2022-11-29T16:19:29.749Z,66.70
2022-11-29T16:22:00.713Z,67.40
2022-11-29T16:24:28.022Z,67.60
2022-11-29T16:26:55.258Z,67.20
2022-11-29T16:29:29.202Z,66.80
2022-11-29T16:31:56.736Z,66.40
2022-11-29T16:34:26.512Z,67.30
2022-11-29T16:37:22.204Z,67.30
2022-11-29T16:39:51.782Z,68.40
2022-11-29T16:42:25.827Z,68.00
2022-11-29T16:44:59.398Z,69.10
2022-11-29T16:47:27.986Z,67.80
2022-11-29T16:50:14.829Z,68.00
2022-11-29T16:52:42.156Z,67.60
2022-11-29T16:55:09.401Z,68.20
2022-11-29T16:57:36.489Z,69.40
2022-11-29T17:00:19.792Z,70.30
2022-11-29T17:02:47.810Z,70.40
2022-11-29T17:05:15.127Z,69.50
2022-11-29T17:07:42.430Z,69.50
2022-11-29T17:10:12.099Z,69.10
2022-11-29T17:12:42.228Z,68.70
2022-11-29T17:15:14.328Z,69.30
2022-11-29T17:17:42.940Z,68.70
2022-11-29T17:20:12.160Z,68.20
2022-11-29T17:22:39.635Z,68.30
2022-11-29T17:25:06.967Z,67.60
2022-11-29T17:27:34.044Z,67.90
2022-11-29T17:30:02.048Z,67.60
2022-11-29T17:32:29.204Z,67.20
2022-11-29T17:34:56.348Z,67.40
2022-11-29T17:37:23.599Z,67.80
2022-11-29T17:39:50.984Z,68.70
2022-11-29T17:42:18.350Z,70.00
2022-11-29T17:44:45.449Z,70.30
2022-11-29T17:47:12.634Z,69.60
2022-11-29T17:49:40.056Z,69.90
2022-11-29T17:52:08.030Z,69.40
2022-11-29T17:54:36.207Z,68.80
2022-11-29T17:57:04.812Z,68.60
2022-11-29T17:59:32.178Z,68.20
2022-11-29T18:01:59.982Z,69.00
2022-11-29T18:04:27.136Z,68.80
2022-11-29T18:06:54.584Z,69.90
2022-11-29T18:09:21.803Z,69.50
2022-11-29T18:11:52.545Z,69.40
2022-11-29T18:14:22.957Z,69.40
2022-11-29T18:16:50.539Z,68.60
2022-11-29T18:19:19.332Z,68.80
2022-11-29T18:21:46.922Z,68.80
2022-11-29T18:24:14.308Z,69.10
2022-11-29T18:26:41.794Z,68.80
2022-11-29T18:29:09.490Z,69.30
2022-11-29T18:31:38.038Z,70.00
2022-11-29T18:34:12.163Z,69.40
2022-11-29T18:36:43.081Z,70.40
2022-11-29T18:39:15.531Z,71.30
2022-11-29T18:41:43.870Z,71.10
2022-11-29T18:44:13.095Z,70.50
2022-11-29T18:46:46.205Z,71.00
2022-11-29T18:49:17.569Z,70.90
2022-11-29T18:51:45.566Z,70.40
2022-11-29T18:54:13.995Z,69.90
2022-11-29T18:56:41.297Z,70.10
2022-11-29T18:59:10.462Z,70.00
2022-11-29T19:01:41.451Z,70.00
2022-11-29T19:04:10.110Z,70.30
2022-11-29T19:06:39.873Z,70.50
2022-11-29T19:09:08.789Z,71.00
2022-11-29T19:11:36.125Z,71.40
2022-11-29T19:14:05.055Z,71.20
2022-11-29T19:16:33.931Z,71.40
2022-11-29T19:19:01.549Z,71.10
2022-11-29T19:21:31.906Z,70.60
2022-11-29T19:24:00.475Z,70.30
2022-11-29T19:26:29.272Z,69.60
2022-11-29T19:28:56.677Z,70.20
2022-11-29T19:31:51.212Z,68.90
2022-11-29T19:34:28.608Z,69.80
2022-11-29T19:36:55.791Z,70.10
2022-11-29T19:39:31.330Z,70.10
2022-11-29T19:41:59.818Z,69.80
2022-11-29T19:44:30.053Z,69.70
2022-11-29T19:46:57.909Z,69.90
2022-11-29T19:49:25.330Z,70.10
2022-11-29T19:51:52.349Z,70.00
2022-11-29T19:54:20.360Z,69.90
2022-11-29T19:56:55.137Z,69.30
2022-11-29T19:59:29.247Z,69.40
2022-11-29T20:01:56.592Z,69.50
2022-11-29T20:04:23.926Z,69.30
2022-11-29T20:06:51.676Z,69.60
2022-11-29T20:09:18.990Z,69.20
2022-11-29T20:11:46.465Z,69.10
2022-11-29T20:14:14.638Z,69.20
2022-11-29T20:16:41.831Z,69.30
2022-11-29T20:19:13.697Z,69.20
2022-11-29T20:21:51.142Z,70.10
2022-11-29T20:24:19.626Z,70.70
2022-11-29T20:26:50.620Z,70.50
2022-11-29T20:29:17.975Z,70.30
2022-11-29T20:31:50.247Z,70.10
2022-11-29T20:34:25.155Z,69.90
2022-11-29T20:37:21.182Z,69.70
2022-11-29T20:39:52.287Z,70.60
2022-11-29T20:42:36.802Z,71.50
2022-11-29T20:45:08.566Z,71.20
2022-11-29T20:47:54.387Z,71.00
2022-11-29T20:50:25.962Z,71.50
2022-11-29T20:53:20.938Z,71.40
2022-11-29T20:55:49.067Z,71.10
2022-11-29T20:58:16.695Z,71.10
2022-11-29T21:00:43.826Z,70.90
2022-11-29T21:03:17.428Z,71.10
2022-11-29T21:05:44.621Z,70.10
2022-11-29T21:08:11.936Z,70.50
2022-11-29T21:10:39.133Z,70.80
2022-11-29T21:13:06.600Z,71.50
2022-11-29T21:15:34.049Z,71.70
2022-11-29T21:18:01.705Z,72.10
2022-11-29T21:20:29.123Z,72.50
2022-11-29T21:23:15.706Z,72.10
2022-11-29T21:25:56.504Z,71.20
2022-11-29T21:28:28.306Z,71.40
2022-11-29T21:30:55.705Z,70.90
2022-11-29T21:33:23.013Z,70.80
2022-11-29T21:35:53.003Z,71.20
2022-11-29T21:38:20.513Z,71.00
2022-11-29T21:40:47.487Z,71.20
2022-11-29T21:43:14.741Z,70.70
2022-11-29T21:45:42.087Z,71.00
2022-11-29T21:48:30.075Z,70.70
2022-11-29T21:50:57.695Z,71.30
2022-11-29T21:53:24.732Z,71.70
2022-11-29T21:55:59.810Z,71.80
2022-11-29T21:58:28.872Z,72.10
2022-11-29T22:00:56.077Z,71.90
2022-11-29T22:03:23.525Z,70.80
2022-11-29T22:05:50.563Z,70.80
2022-11-29T22:08:18.276Z,70.50
2022-11-29T22:10:45.577Z,71.00
2022-11-29T22:13:12.803Z,70.80
2022-11-29T22:15:39.952Z,71.20
2022-11-29T22:18:07.334Z,70.80
2022-11-29T22:20:36.508Z,70.50
2022-11-29T22:23:03.695Z,69.70
2022-11-29T22:25:31.090Z,69.80
2022-11-29T22:27:58.255Z,69.10
2022-11-29T22:30:25.316Z,70.20
2022-11-29T22:32:52.554Z,69.70
2022-11-29T22:35:19.572Z,70.20
2022-11-29T22:37:46.753Z,70.70
2022-11-29T22:40:14.393Z,70.90
2022-11-29T22:42:41.659Z,71.30
2022-11-29T22:45:09.646Z,71.60
2022-11-29T22:47:37.045Z,72.50
2022-11-29T22:50:04.826Z,72.30
2022-11-29T22:52:31.983Z,72.10
2022-11-29T22:55:04.411Z,72.40
2022-11-29T22:57:32.317Z,72.30
2022-11-29T22:59:59.397Z,71.40
2022-11-29T23:02:28.331Z,71.20
2022-11-29T23:04:55.393Z,71.50
2022-11-29T23:07:22.551Z,71.40
2022-11-29T23:09:49.987Z,71.70
2022-11-29T23:12:17.087Z,71.50
2022-11-29T23:14:44.325Z,71.40
2022-11-29T23:17:11.737Z,71.50
2022-11-29T23:19:38.825Z,71.70
2022-11-29T23:22:06.308Z,71.70
2022-11-29T23:24:33.548Z,71.90
2022-11-29T23:27:00.644Z,71.40
2022-11-29T23:29:27.695Z,71.90
2022-11-29T23:31:55.177Z,71.80
2022-11-29T23:34:22.274Z,71.40
2022-11-29T23:36:52.913Z,71.80
2022-11-29T23:39:21.017Z,72.30
2022-11-29T23:41:48.133Z,71.80
2022-11-29T23:44:15.238Z,71.90
2022-11-29T23:46:42.627Z,71.70
2022-11-29T23:49:09.869Z,72.00
2022-11-29T23:51:37.068Z,72.20
2022-11-29T23:54:07.084Z,72.30
2022-11-29T23:56:35.782Z,72.60
2022-11-29T23:59:03.032Z,73.40
